createdAt,value
2022-11-01T00:01:27.086Z,100404.49
2022-11-01T00:03:31.522Z,100398.6
2022-11-01T00:05:35.875Z,100394.75
2022-11-01T00:07:40.208Z,100392.78
2022-11-01T00:09:44.582Z,100390.4
2022-11-01T00:11:48.938Z,100387.7
2022-11-01T00:13:53.342Z,100387.95
2022-11-01T00:15:57.678Z,100381.95
2022-11-01T00:18:02.018Z,100379.02
2022-11-01T00:20:06.372Z,100369.22
2022-11-01T00:22:10.710Z,100362.34
2022-11-01T00:24:15.071Z,100363.16
2022-11-01T00:26:19.398Z,100359.14
2022-11-01T00:28:23.726Z,100351.14
2022-11-01T00:30:28.057Z,100344.84
2022-11-01T00:32:32.407Z,100343.64
2022-11-01T00:34:36.740Z,100348.2
2022-11-01T00:36:41.087Z,100345.08
2022-11-01T00:38:45.424Z,100343.47
2022-11-01T00:40:49.792Z,100343.41
2022-11-01T00:42:54.245Z,100346.98
2022-11-01T00:44:58.634Z,100340.67
2022-11-01T00:47:02.981Z,100340.13
2022-11-01T00:49:07.325Z,100341.31
2022-11-01T00:51:11.672Z,100337.84
2022-11-01T00:53:15.997Z,100339.08
2022-11-01T00:55:20.368Z,100335.13
2022-11-01T00:57:24.716Z,100333.36
2022-11-01T00:59:29.107Z,100334.89
2022-11-01T01:01:33.886Z,100330.95
2022-11-01T01:03:38.496Z,100325
2022-11-01T01:05:42.905Z,100322.27
2022-11-01T01:07:47.263Z,100322.2
2022-11-01T01:09:51.640Z,100319.28
2022-11-01T01:11:55.991Z,100316.69
2022-11-01T01:14:00.348Z,100318.16
2022-11-01T01:16:04.700Z,100320.78
2022-11-01T01:18:09.045Z,100316.2
2022-11-01T01:20:13.385Z,100318
2022-11-01T01:22:17.794Z,100316.24
2022-11-01T01:24:22.103Z,100316.97
2022-11-01T01:26:26.450Z,100306.69
2022-11-01T01:28:30.806Z,100304.79
2022-11-01T01:30:35.165Z,100306.59
2022-11-01T01:32:39.479Z,100306.36
2022-11-01T01:34:43.844Z,100305.23
2022-11-01T01:36:48.208Z,100298.44
2022-11-01T01:38:52.553Z,100298.14
2022-11-01T01:40:56.921Z,100294.77
2022-11-01T01:43:01.285Z,100295.8
2022-11-01T01:45:05.644Z,100298.11
2022-11-01T01:47:09.965Z,100293.69
2022-11-01T01:49:14.310Z,100292.33
2022-11-01T01:51:18.640Z,100295.88
2022-11-01T01:53:22.998Z,100291.8
2022-11-01T01:55:27.389Z,100286.96
2022-11-01T01:57:31.725Z,100283.29
2022-11-01T01:59:36.068Z,100278.7
2022-11-01T02:01:41.100Z,100272.88
2022-11-01T02:03:45.800Z,100272
2022-11-01T02:05:50.170Z,100270.91
2022-11-01T02:07:54.507Z,100267.98
2022-11-01T02:09:58.842Z,100266.55
2022-11-01T02:12:03.221Z,100256.07
2022-11-01T02:14:07.557Z,100250.55
2022-11-01T02:16:11.911Z,100246.3
2022-11-01T02:18:16.299Z,100254.88
2022-11-01T02:20:20.723Z,100251.62
2022-11-01T02:22:25.095Z,100248.22
2022-11-01T02:24:29.444Z,100248.36
2022-11-01T02:26:33.757Z,100248.45
2022-11-01T02:28:38.122Z,100250.03
2022-11-01T02:30:42.516Z,100251.05
2022-11-01T02:32:46.883Z,100245.17
2022-11-01T02:34:51.232Z,100243.91
2022-11-01T02:36:55.577Z,100241.8
2022-11-01T02:38:59.973Z,100242.73
2022-11-01T02:41:04.378Z,100243.98
2022-11-01T02:43:08.728Z,100242.15
2022-11-01T02:45:13.141Z,100240.05
2022-11-01T02:47:17.479Z,100236.69
2022-11-01T02:49:21.820Z,100240.91
2022-11-01T02:51:26.162Z,100242.41
2022-11-01T02:53:30.494Z,100245.78
2022-11-01T02:55:35.268Z,100245.55
2022-11-01T02:57:39.763Z,100245.95
2022-11-01T02:59:44.138Z,100251.23
2022-11-01T03:01:48.649Z,100250.86
2022-11-01T03:03:53.276Z,100247.33
2022-11-01T03:05:57.608Z,100241.13
2022-11-01T03:08:02.717Z,100230.8
2022-11-01T03:10:08.071Z,100230.83
2022-11-01T03:12:12.421Z,100227.4
2022-11-01T03:14:16.797Z,100224.98
2022-11-01T03:16:21.124Z,100226.69
2022-11-01T03:18:25.467Z,100225.53
2022-11-01T03:20:29.816Z,100225.7
2022-11-01T03:22:34.142Z,100224.38
2022-11-01T03:24:38.512Z,100222.58
2022-11-01T03:26:42.855Z,100225.67
2022-11-01T03:28:47.358Z,100223.91
2022-11-01T03:30:51.795Z,100224.97
2022-11-01T03:32:56.209Z,100222.72
2022-11-01T03:35:00.516Z,100219.19
2022-11-01T03:37:04.907Z,100217.31
2022-11-01T03:39:09.275Z,100222.59
2022-11-01T03:41:13.684Z,100220.79
2022-11-01T03:43:17.990Z,100228.44
2022-11-01T03:47:27.762Z,100223.85
2022-11-01T03:49:32.118Z,100221.91
2022-11-01T03:51:36.484Z,100219.91
2022-11-01T03:53:41.025Z,100216.57
2022-11-01T03:55:45.621Z,100213.48
2022-11-01T03:57:50.113Z,100212.16
2022-11-01T03:59:54.435Z,100213.52
2022-11-01T04:01:59.222Z,100216.08
2022-11-01T04:04:03.952Z,100217.74
2022-11-01T04:06:08.269Z,100216.69
2022-11-01T04:08:12.631Z,100215.03
2022-11-01T04:10:16.990Z,100206.86
2022-11-01T04:12:21.351Z,100204.8
2022-11-01T04:14:25.700Z,100203.91
2022-11-01T04:16:30.076Z,100203.03
2022-11-01T04:18:34.632Z,100201.43
2022-11-01T04:20:39.124Z,100206.98
2022-11-01T04:22:43.524Z,100207.02
2022-11-01T04:24:47.849Z,100208.78
2022-11-01T04:26:52.177Z,100211.14
2022-11-01T04:28:56.534Z,100215.55
2022-11-01T04:31:01.397Z,100211.89
2022-11-01T04:33:06.238Z,100217.33
2022-11-01T04:35:10.615Z,100219.64
2022-11-01T04:37:14.977Z,100221.14
2022-11-01T04:39:19.372Z,100224.52
2022-11-01T04:41:23.711Z,100224.27
2022-11-01T04:43:28.068Z,100223.22
2022-11-01T04:45:32.455Z,100219.69
2022-11-01T04:47:37.335Z,100214.66
2022-11-01T04:49:41.685Z,100214.16
2022-11-01T04:51:46.034Z,100211.61
2022-11-01T04:53:50.357Z,100204.84
2022-11-01T04:55:54.704Z,100208.69
2022-11-01T04:57:59.069Z,100204.2
2022-11-01T05:00:03.432Z,100197.13
2022-11-01T05:02:07.883Z,100200.13
2022-11-01T05:04:12.370Z,100197.03
2022-11-01T05:06:16.781Z,100189.19
2022-11-01T05:08:21.156Z,100185.45
2022-11-01T05:10:25.549Z,100184.33
2022-11-01T05:12:29.922Z,100183.68
2022-11-01T05:14:34.296Z,100179.09
2022-11-01T05:16:38.623Z,100175.25
2022-11-01T05:18:42.949Z,100170.25
2022-11-01T05:20:47.321Z,100164.69
2022-11-01T05:22:51.649Z,100168.59
2022-11-01T05:24:55.986Z,100171.76
2022-11-01T05:27:00.301Z,100173.77
2022-11-01T05:29:33.701Z,100177.71
2022-11-01T05:31:38.115Z,100178.73
2022-11-01T05:33:42.481Z,100182.78
2022-11-01T05:35:46.817Z,100189.51
2022-11-01T05:37:51.128Z,100189.03
2022-11-01T05:39:55.497Z,100202.16
2022-11-01T05:42:03.794Z,100206.3
2022-11-01T05:44:08.485Z,100207.48
2022-11-01T05:46:13.239Z,100203.3
2022-11-01T05:48:17.587Z,100201.3
2022-11-01T05:50:21.990Z,100204.88
2022-11-01T05:52:26.328Z,100204.67
2022-11-01T05:54:30.636Z,100205.18
2022-11-01T05:56:35.051Z,100205.38
2022-11-01T05:58:39.424Z,100199.5
2022-11-01T06:00:43.812Z,100198.28
2022-11-01T06:02:48.296Z,100200.77
2022-11-01T06:04:52.826Z,100204.13
2022-11-01T06:06:57.200Z,100213.85
2022-11-01T06:09:01.510Z,100218.78
2022-11-01T06:11:05.901Z,100212.97
2022-11-01T06:13:10.273Z,100207.63
2022-11-01T06:15:14.660Z,100211.27
2022-11-01T06:17:19.059Z,100217.48
2022-11-01T06:19:23.508Z,100220.65
2022-11-01T06:21:31.071Z,100219.02
2022-11-01T06:23:35.448Z,100222.76
2022-11-01T06:25:39.936Z,100231.7
2022-11-01T06:27:44.281Z,100245.56
2022-11-01T06:29:48.673Z,100252.88
2022-11-01T06:31:53.093Z,100249.2
2022-11-01T06:33:57.461Z,100245.05
2022-11-01T06:36:01.870Z,100247.77
2022-11-01T06:38:06.308Z,100249.2
2022-11-01T06:40:10.669Z,100257.19
2022-11-01T06:42:15.019Z,100268.57
2022-11-01T06:44:19.374Z,100265.88
2022-11-01T06:46:23.762Z,100259.91
2022-11-01T06:48:28.112Z,100259.84
2022-11-01T06:50:32.430Z,100255.63
2022-11-01T06:52:36.761Z,100260.21
2022-11-01T06:54:41.104Z,100253.86
2022-11-01T06:56:45.514Z,100261.95
2022-11-01T06:58:49.875Z,100261.64
2022-11-01T07:00:54.458Z,100257.22
2022-11-01T07:02:59.027Z,100254.47
2022-11-01T07:05:03.393Z,100263.81
2022-11-01T07:07:07.750Z,100263.47
2022-11-01T07:09:12.172Z,100263.13
2022-11-01T07:11:16.589Z,100274.18
2022-11-01T07:13:21.008Z,100274.28
2022-11-01T07:15:25.377Z,100278.7
2022-11-01T07:17:29.786Z,100280.64
2022-11-01T07:19:34.159Z,100280.3
2022-11-01T07:21:38.505Z,100282.7
2022-11-01T07:23:42.869Z,100277.88
2022-11-01T07:25:47.255Z,100277.65
2022-11-01T07:27:51.651Z,100274.63
2022-11-01T07:29:55.997Z,100272.52
2022-11-01T07:32:00.352Z,100274.83
2022-11-01T07:34:04.679Z,100272.34
2022-11-01T07:36:09.060Z,100267.04
2022-11-01T07:38:14.806Z,100267.03
2022-11-01T07:40:20.003Z,100254.08
2022-11-01T07:42:24.318Z,100254.4
2022-11-01T07:44:28.654Z,100253.73
2022-11-01T07:46:33.023Z,100258.16
2022-11-01T07:48:37.391Z,100256.61
2022-11-01T07:50:41.781Z,100256.01
2022-11-01T07:52:46.140Z,100257.72
2022-11-01T07:54:50.532Z,100258.59
2022-11-01T07:56:54.911Z,100258.78
2022-11-01T07:58:59.335Z,100264.1
2022-11-01T08:01:03.829Z,100261.3
2022-11-01T08:03:08.420Z,100259.64
2022-11-01T08:05:12.844Z,100258.91
2022-11-01T08:07:17.419Z,100260.75
2022-11-01T08:09:21.852Z,100260.77
2022-11-01T08:11:26.188Z,100263.69
2022-11-01T08:13:30.522Z,100270.98
2022-11-01T08:15:34.929Z,100269.02
2022-11-01T08:17:39.342Z,100266.58
2022-11-01T08:19:43.698Z,100267.27
2022-11-01T08:21:48.070Z,100254.61
2022-11-01T08:23:52.413Z,100251.08
2022-11-01T08:25:56.949Z,100257.45
2022-11-01T08:28:01.349Z,100261.89
2022-11-01T08:30:05.726Z,100264.86
2022-11-01T08:32:10.114Z,100254.78
2022-11-01T08:34:18.199Z,100251.39
2022-11-01T08:36:22.624Z,100256.31
2022-11-01T08:38:26.969Z,100261.42
2022-11-01T08:40:31.346Z,100260.82
2022-11-01T08:42:35.730Z,100262.45
2022-11-01T08:44:40.086Z,100259.65
2022-11-01T08:46:44.597Z,100260.91
2022-11-01T08:48:49.012Z,100263.38
2022-11-01T08:50:53.393Z,100266.1
2022-11-01T08:52:57.747Z,100265.79
2022-11-01T08:55:02.308Z,100269.77
2022-11-01T08:57:06.734Z,100265.74
2022-11-01T08:59:11.121Z,100267.6
2022-11-01T09:01:15.681Z,100266.34
2022-11-01T09:03:20.443Z,100264.39
2022-11-01T09:05:24.828Z,100263.21
2022-11-01T09:07:29.173Z,100257.09
2022-11-01T09:09:33.589Z,100264.84
2022-11-01T09:11:37.983Z,100271.58
2022-11-01T09:13:42.345Z,100265.63
2022-11-01T09:15:46.936Z,100271.38
2022-11-01T09:17:51.501Z,100268.05
2022-11-01T09:19:55.872Z,100270.98
2022-11-01T09:22:00.234Z,100275.78
2022-11-01T09:24:04.618Z,100275.14
2022-11-01T09:26:09.019Z,100281.36
2022-11-01T09:28:13.392Z,100280.8
2022-11-01T09:30:17.758Z,100284.63
2022-11-01T09:32:22.121Z,100279.7
2022-11-01T09:34:26.468Z,100283.55
2022-11-01T09:36:30.882Z,100281.86
2022-11-01T09:38:35.281Z,100278.39
2022-11-01T09:40:39.627Z,100280.59
2022-11-01T09:42:43.983Z,100283.17
2022-11-01T09:44:48.331Z,100293.45
2022-11-01T09:46:56.741Z,100299.72
2022-11-01T09:49:06.241Z,100297.25
2022-11-01T09:51:10.679Z,100297.05
2022-11-01T09:53:15.085Z,100291.19
2022-11-01T09:55:19.492Z,100291.23
2022-11-01T09:57:23.881Z,100283.42
2022-11-01T09:59:28.299Z,100286.52
2022-11-01T10:01:33.121Z,100285.52
2022-11-01T10:03:37.824Z,100293.51
2022-11-01T10:05:42.250Z,100302.3
2022-11-01T10:07:46.694Z,100308.27
2022-11-01T10:09:51.076Z,100317.72
2022-11-01T10:11:55.469Z,100312.52
2022-11-01T10:13:59.862Z,100315.27
2022-11-01T10:16:04.321Z,100321.89
2022-11-01T10:18:09.179Z,100318.41
2022-11-01T10:20:13.509Z,100323.94
2022-11-01T10:22:17.867Z,100315.84
2022-11-01T10:24:22.190Z,100313.3
2022-11-01T10:26:26.535Z,100307.72
2022-11-01T10:28:30.908Z,100311.54
2022-11-01T10:30:35.244Z,100313.14
2022-11-01T10:32:39.623Z,100309.3
2022-11-01T10:34:43.970Z,100303.55
2022-11-01T10:36:48.345Z,100306.58
2022-11-01T10:39:53.109Z,100307.49
2022-11-01T10:42:00.602Z,100303.78
2022-11-01T10:44:04.962Z,100313.06
2022-11-01T10:46:09.342Z,100319.76
2022-11-01T10:48:13.725Z,100314.99
2022-11-01T10:50:18.216Z,100321.23
2022-11-01T10:52:22.633Z,100323.71
2022-11-01T10:54:26.990Z,100321.88
2022-11-01T10:56:31.345Z,100321.98
2022-11-01T10:58:35.728Z,100326.11
2022-11-01T11:00:40.243Z,100328.7
2022-11-01T11:02:44.778Z,100326.42
2022-11-01T11:04:49.221Z,100321.55
2022-11-01T11:06:53.691Z,100327.27
2022-11-01T11:08:58.081Z,100324.78
2022-11-01T11:11:02.423Z,100322.22
2022-11-01T11:13:07.567Z,100321.57
2022-11-01T11:15:12.135Z,100322.76
2022-11-01T11:17:16.511Z,100325.33
2022-11-01T11:19:20.837Z,100322.75
2022-11-01T11:21:29.038Z,100321.14
2022-11-01T11:23:33.464Z,100325.91
2022-11-01T11:25:37.944Z,100323.1
2022-11-01T11:27:42.583Z,100329.36
2022-11-01T11:29:46.976Z,100326.97
2022-11-01T11:31:51.363Z,100330.51
2022-11-01T11:33:55.746Z,100337.89
2022-11-01T11:36:00.164Z,100330.55
2022-11-01T11:38:05.900Z,100337.09
2022-11-01T11:40:10.893Z,100334.02
2022-11-01T11:42:15.359Z,100331.52
2022-11-01T11:44:19.782Z,100329.44
2022-11-01T11:46:24.206Z,100327.03
2022-11-01T11:48:28.621Z,100326.86
2022-11-01T11:50:33.022Z,100324.66
2022-11-01T11:52:39.754Z,100328.23
2022-11-01T11:54:44.107Z,100329.81
2022-11-01T11:56:48.547Z,100332.17
2022-11-01T11:58:52.927Z,100331.36
2022-11-01T12:00:57.356Z,100327.95
2022-11-01T12:03:02.653Z,100328.58
2022-11-01T12:05:08.083Z,100321.16
2022-11-01T12:07:12.570Z,100321.5
2022-11-01T12:09:23.067Z,100325.11
2022-11-01T12:11:27.431Z,100322.66
2022-11-01T12:13:31.848Z,100320.34
2022-11-01T12:15:41.340Z,100322.55
2022-11-01T12:17:46.032Z,100315.98
2022-11-01T12:19:50.451Z,100312.62
2022-11-01T12:21:54.888Z,100312.75
2022-11-01T12:23:59.234Z,100320.31
2022-11-01T12:26:03.600Z,100316.5
2022-11-01T12:28:08.350Z,100313.55
2022-11-01T12:30:12.751Z,100314.2
2022-11-01T12:32:17.174Z,100318.45
2022-11-01T12:34:21.531Z,100327.3
2022-11-01T12:36:25.890Z,100323.19
2022-11-01T12:38:30.263Z,100318.27
2022-11-01T12:40:34.766Z,100325.83
2022-11-01T12:42:39.144Z,100321.16
2022-11-01T12:44:43.520Z,100320.59
2022-11-01T12:46:47.885Z,100315.66
2022-11-01T12:48:52.302Z,100317.31
2022-11-01T12:50:56.866Z,100323.71
2022-11-01T12:53:01.960Z,100326.27
2022-11-01T12:55:07.032Z,100334.5
2022-11-01T12:57:11.422Z,100333.2
2022-11-01T12:59:15.789Z,100337.19
2022-11-01T13:01:20.440Z,100334.66
2022-11-01T13:03:25.079Z,100333.92
2022-11-01T13:05:29.381Z,100327.2
2022-11-01T13:07:33.721Z,100328.94
2022-11-01T13:09:38.170Z,100328.25
2022-11-01T13:11:42.515Z,100332.03
2022-11-01T13:13:46.898Z,100327.03
2022-11-01T13:15:51.246Z,100330.71
2022-11-01T13:17:55.648Z,100332.11
2022-11-01T13:20:00.034Z,100331.2
2022-11-01T13:22:04.391Z,100329.71
2022-11-01T13:24:08.780Z,100330.02
2022-11-01T13:26:13.211Z,100334
2022-11-01T13:28:17.568Z,100331.22
2022-11-01T13:30:21.912Z,100328.98
2022-11-01T13:32:26.275Z,100331.48
2022-11-01T13:34:30.639Z,100339.13
2022-11-01T13:36:35.038Z,100349.77
2022-11-01T13:38:39.383Z,100348.31
2022-11-01T13:40:43.760Z,100347.83
2022-11-01T13:42:48.100Z,100345.42
2022-11-01T13:44:52.425Z,100345.88
2022-11-01T13:46:56.783Z,100341.05
2022-11-01T13:49:01.119Z,100336.95
2022-11-01T13:51:05.469Z,100333.48
2022-11-01T13:53:09.794Z,100340.42
2022-11-01T13:55:14.154Z,100336.11
2022-11-01T13:57:18.557Z,100340.48
2022-11-01T13:59:22.920Z,100346.69
2022-11-01T14:01:27.565Z,100342.55
2022-11-01T14:03:32.291Z,100349.38
2022-11-01T14:05:36.601Z,100349.97
2022-11-01T14:07:40.981Z,100344.23
2022-11-01T14:09:45.305Z,100344.28
2022-11-01T14:11:49.667Z,100343.41
2022-11-01T14:13:53.983Z,100345.61
2022-11-01T14:15:58.306Z,100340.44
2022-11-01T14:18:03.698Z,100344.28
2022-11-01T14:20:08.878Z,100340.17
2022-11-01T14:22:13.356Z,100349.57
2022-11-01T14:24:17.696Z,100351.41
2022-11-01T14:26:22.075Z,100354.23
2022-11-01T14:28:26.431Z,100347.7
2022-11-01T14:30:30.851Z,100349.68
2022-11-01T14:32:35.220Z,100353.94
2022-11-01T14:34:39.591Z,100355.39
2022-11-01T14:36:43.911Z,100353.55
2022-11-01T14:38:48.268Z,100353.85
2022-11-01T14:40:52.647Z,100354.43
2022-11-01T14:42:57.058Z,100354.34
2022-11-01T14:45:01.401Z,100351.69
2022-11-01T14:47:05.744Z,100350.05
2022-11-01T14:49:10.229Z,100356.41
2022-11-01T14:51:14.574Z,100355.51
2022-11-01T14:53:18.929Z,100361.02
2022-11-01T14:55:23.351Z,100356.38
2022-11-01T14:57:27.710Z,100351.6
2022-11-01T14:59:32.117Z,100352.09
2022-11-01T15:01:36.724Z,100355.46
2022-11-01T15:03:41.470Z,100364.45
2022-11-01T15:05:45.859Z,100368.64
2022-11-01T15:07:50.182Z,100368.77
2022-11-01T15:09:54.554Z,100377.16
2022-11-01T15:11:58.917Z,100370.44
2022-11-01T15:14:03.286Z,100366.76
2022-11-01T15:16:07.664Z,100370.34
2022-11-01T15:18:12.001Z,100373.94
2022-11-01T15:20:16.384Z,100372.7
2022-11-01T15:22:20.714Z,100375.7
2022-11-01T15:24:25.063Z,100374.25
2022-11-01T15:26:29.492Z,100369.39
2022-11-01T15:28:33.862Z,100371.18
2022-11-01T15:30:38.252Z,100375.69
2022-11-01T15:32:42.607Z,100377.58
2022-11-01T15:34:46.977Z,100374.95
2022-11-01T15:36:51.332Z,100381.52
2022-11-01T15:38:55.702Z,100377.73
2022-11-01T15:41:00.183Z,100380.5
2022-11-01T15:43:05.523Z,100380.86
2022-11-01T15:45:10.646Z,100384.93
2022-11-01T15:47:14.986Z,100377.53
2022-11-01T15:49:19.325Z,100380.78
2022-11-01T15:51:23.674Z,100383.98
2022-11-01T15:53:28.041Z,100385.48
2022-11-01T15:55:32.435Z,100389.95
2022-11-01T15:57:36.798Z,100386.74
2022-11-01T15:59:41.191Z,100390.8
2022-11-01T16:01:45.826Z,100393.15
2022-11-01T16:03:50.454Z,100393.48
2022-11-01T16:05:59.671Z,100395.48
2022-11-01T16:08:04.213Z,100398.23
2022-11-01T16:10:08.550Z,100400.63
2022-11-01T16:12:12.901Z,100404.22
2022-11-01T16:14:17.261Z,100407.2
2022-11-01T16:16:21.584Z,100410.68
2022-11-01T16:18:25.948Z,100410.03
2022-11-01T16:20:30.279Z,100415.39
2022-11-01T16:22:34.625Z,100412.8
2022-11-01T16:24:38.960Z,100416.9
2022-11-01T16:26:43.333Z,100417.98
2022-11-01T16:28:47.694Z,100420.3
2022-11-01T16:30:52.040Z,100421.25
2022-11-01T16:32:56.638Z,100421.83
2022-11-01T16:35:00.942Z,100423.29
2022-11-01T16:37:05.314Z,100428.95
2022-11-01T16:39:09.641Z,100428.34
2022-11-01T16:41:13.955Z,100432.68
2022-11-01T16:43:18.267Z,100429.78
2022-11-01T16:45:22.590Z,100427.73
2022-11-01T16:47:26.959Z,100434.36
2022-11-01T16:49:31.352Z,100438.14
2022-11-01T16:51:35.863Z,100436.98
2022-11-01T16:53:40.206Z,100439.79
2022-11-01T16:55:44.579Z,100450.02
2022-11-01T16:57:48.987Z,100451.19
2022-11-01T16:59:53.333Z,100457.5
2022-11-01T17:01:58.008Z,100450.82
2022-11-01T17:04:02.743Z,100454.16
2022-11-01T17:06:07.281Z,100459.49
2022-11-01T17:08:11.689Z,100465.19
2022-11-01T17:10:16.080Z,100467.55
2022-11-01T17:12:20.492Z,100472.47
2022-11-01T17:14:24.935Z,100478.27
2022-11-01T17:16:29.373Z,100479.22
2022-11-01T17:18:33.793Z,100480.76
2022-11-01T17:20:38.260Z,100480.45
2022-11-01T17:22:42.783Z,100483.83
2022-11-01T17:24:47.181Z,100488.52
2022-11-01T17:26:51.547Z,100489.41
2022-11-01T17:28:55.996Z,100493.6
2022-11-01T17:31:00.380Z,100491.48
2022-11-01T17:33:04.813Z,100496.64
2022-11-01T17:35:09.282Z,100501.34
2022-11-01T17:37:13.649Z,100496.91
2022-11-01T17:39:18.038Z,100488.86
2022-11-01T17:41:22.429Z,100494.77
2022-11-01T17:43:26.828Z,100496.95
2022-11-01T17:45:31.257Z,100494.27
2022-11-01T17:47:35.653Z,100503.7
2022-11-01T17:49:40.049Z,100494.93
2022-11-01T17:51:44.476Z,100492.33
2022-11-01T17:53:50.265Z,100498.73
2022-11-01T17:55:54.657Z,100507.08
2022-11-01T17:57:59.041Z,100509.28
2022-11-01T18:00:03.827Z,100510.67
2022-11-01T18:02:08.525Z,100506.2
2022-11-01T18:04:13.231Z,100509.27
2022-11-01T18:06:17.610Z,100508.35
2022-11-01T18:08:21.938Z,100508.45
2022-11-01T18:10:26.256Z,100514.91
2022-11-01T18:12:30.595Z,100507.03
2022-11-01T18:14:34.908Z,100502.88
2022-11-01T18:16:39.303Z,100502.7
2022-11-01T18:18:43.702Z,100500.95
2022-11-01T18:20:48.067Z,100504.09
2022-11-01T18:22:52.448Z,100506.03
2022-11-01T18:24:56.763Z,100512.2
2022-11-01T18:27:01.106Z,100522.86
2022-11-01T18:29:05.467Z,100513.72
2022-11-01T18:31:09.803Z,100509.53
2022-11-01T18:33:14.207Z,100501.48
2022-11-01T18:35:18.745Z,100509.59
2022-11-01T18:37:23.150Z,100515.13
2022-11-01T18:39:27.529Z,100515.75
2022-11-01T18:41:31.873Z,100510.3
2022-11-01T18:43:36.284Z,100507.17
2022-11-01T18:46:23.144Z,100506.25
2022-11-01T18:48:30.659Z,100510.03
2022-11-01T18:50:34.970Z,100517.56
2022-11-01T18:52:39.296Z,100523.79
2022-11-01T18:54:43.604Z,100529.17
2022-11-01T18:56:47.905Z,100534.62
2022-11-01T18:58:52.206Z,100533.5
2022-11-01T19:00:56.736Z,100532.81
2022-11-01T19:03:01.201Z,100537.94
2022-11-01T19:05:05.582Z,100538.73
2022-11-01T19:07:11.024Z,100538.83
2022-11-01T19:09:15.391Z,100538.31
2022-11-01T19:11:19.781Z,100541.36
2022-11-01T19:13:24.153Z,100536.55
2022-11-01T19:15:28.593Z,100540.3
2022-11-01T19:17:32.946Z,100546.02
2022-11-01T19:19:37.367Z,100548.95
2022-11-01T19:21:41.808Z,100554.81
2022-11-01T19:23:46.155Z,100551.47
2022-11-01T19:25:50.556Z,100551.02
2022-11-01T19:27:54.929Z,100548.3
2022-11-01T19:29:59.331Z,100551.64
2022-11-01T19:32:03.717Z,100549.45
2022-11-01T19:34:08.041Z,100549.42
2022-11-01T19:36:12.401Z,100555.91
2022-11-01T19:38:16.736Z,100558.29
2022-11-01T19:40:27.452Z,100556.17
2022-11-01T19:42:32.168Z,100564.84
2022-11-01T19:44:36.561Z,100561.43
2022-11-01T19:46:40.901Z,100563.89
2022-11-01T19:48:45.402Z,100559.87
2022-11-01T19:50:49.765Z,100566.38
2022-11-01T19:52:54.170Z,100562.8
2022-11-01T19:54:58.499Z,100562.19
2022-11-01T19:57:02.856Z,100568.33
2022-11-01T19:59:07.280Z,100571.44
2022-11-01T20:01:11.988Z,100566.22
2022-11-01T20:03:16.766Z,100569.53
2022-11-01T20:05:21.111Z,100573.13
2022-11-01T20:07:25.455Z,100571.31
2022-11-01T20:09:29.821Z,100576.44
2022-11-01T20:11:34.203Z,100583.36
2022-11-01T20:13:38.510Z,100582.45
2022-11-01T20:15:42.855Z,100579.48
2022-11-01T20:17:47.573Z,100585.27
2022-11-01T20:19:51.969Z,100585.48
2022-11-01T20:21:56.326Z,100588.48
2022-11-01T20:24:00.689Z,100588.02
2022-11-01T20:26:05.036Z,100589.81
2022-11-01T20:28:09.409Z,100594.22
2022-11-01T20:30:13.788Z,100593.44
2022-11-01T20:32:18.184Z,100590.7
2022-11-01T20:34:22.559Z,100593.4
2022-11-01T20:36:26.985Z,100592.99
2022-11-01T20:38:31.554Z,100594.11
2022-11-01T20:40:35.939Z,100597.31
2022-11-01T20:42:40.287Z,100601.16
2022-11-01T20:44:44.687Z,100601.57
2022-11-01T20:46:49.068Z,100604.87
2022-11-01T20:48:53.483Z,100601.02
2022-11-01T20:50:57.837Z,100600.81
2022-11-01T20:53:02.963Z,100601.77
2022-11-01T20:55:07.982Z,100599.78
2022-11-01T20:57:28.699Z,100602.52
2022-11-01T20:59:33.254Z,100603.67
2022-11-01T21:01:37.878Z,100608.66
2022-11-01T21:03:42.493Z,100606.81
2022-11-01T21:05:46.839Z,100607.25
2022-11-01T21:07:51.183Z,100612.91
2022-11-01T21:09:55.610Z,100611.52
2022-11-01T21:11:59.951Z,100607.39
2022-11-01T21:14:04.317Z,100607.63
2022-11-01T21:16:09.265Z,100608.59
2022-11-01T21:18:13.589Z,100607.3
2022-11-01T21:20:17.966Z,100606.13
2022-11-01T21:22:22.323Z,100605.34
2022-11-01T21:24:26.682Z,100602.69
2022-11-01T21:26:31.000Z,100604.66
2022-11-01T21:28:35.421Z,100601.48
2022-11-01T21:30:39.770Z,100603.08
2022-11-01T21:32:46.379Z,100605.73
2022-11-01T21:34:50.733Z,100604.06
2022-11-01T21:36:55.101Z,100604.34
2022-11-01T21:38:59.441Z,100604.1
2022-11-01T21:41:03.794Z,100601.73
2022-11-01T21:43:08.128Z,100601.19
2022-11-01T21:45:12.492Z,100604.7
2022-11-01T21:47:16.851Z,100605.36
2022-11-01T21:49:21.188Z,100609.19
2022-11-01T21:51:25.604Z,100605.75
2022-11-01T21:53:29.999Z,100609.23
2022-11-01T21:55:34.391Z,100609.86
2022-11-01T21:57:38.733Z,100601.13
2022-11-01T21:59:43.092Z,100601.86
2022-11-01T22:01:47.920Z,100596.55
2022-11-01T22:03:52.687Z,100596.27
2022-11-01T22:05:57.061Z,100596.21
2022-11-01T22:08:01.412Z,100596.02
2022-11-01T22:10:05.801Z,100597.14
2022-11-01T22:12:10.164Z,100601.61
2022-11-01T22:14:14.522Z,100601.58
2022-11-01T22:16:18.912Z,100606.8
2022-11-01T22:18:26.263Z,100605.74
2022-11-01T22:20:30.583Z,100607.72
2022-11-01T22:22:34.947Z,100605.75
2022-11-01T22:24:39.284Z,100609.09
2022-11-01T22:26:43.718Z,100605.69
2022-11-01T22:28:48.032Z,100602.17
2022-11-01T22:30:52.407Z,100602.48
2022-11-01T22:32:56.789Z,100609.71
2022-11-01T22:35:01.144Z,100602.25
2022-11-01T22:37:05.506Z,100604.47
2022-11-01T22:39:09.827Z,100601.16
2022-11-01T22:41:14.225Z,100595.38
2022-11-01T22:43:18.578Z,100592.06
2022-11-01T22:45:22.950Z,100591.66
2022-11-01T22:47:27.314Z,100591.39
2022-11-01T22:49:31.680Z,100593.41
2022-11-01T22:51:36.095Z,100597.86
2022-11-01T22:53:40.459Z,100601.34
2022-11-01T22:55:44.836Z,100601.14
2022-11-01T22:57:49.188Z,100598.28
2022-11-01T22:59:53.545Z,100600.45
2022-11-01T23:01:58.098Z,100599.3
2022-11-01T23:04:02.731Z,100597.26
2022-11-01T23:06:07.072Z,100597.19
2022-11-01T23:08:11.363Z,100600.53
2022-11-01T23:10:15.712Z,100601
2022-11-01T23:12:20.077Z,100601.31
2022-11-01T23:14:24.480Z,100599.67
2022-11-01T23:16:28.844Z,100602.77
2022-11-01T23:18:34.326Z,100601.45
2022-11-01T23:20:38.661Z,100603.87
2022-11-01T23:22:43.049Z,100608.95
2022-11-01T23:24:47.392Z,100612.63
2022-11-01T23:26:51.733Z,100610.23
2022-11-01T23:28:56.045Z,100611.27
2022-11-01T23:31:00.430Z,100612.83
2022-11-01T23:33:05.675Z,100614.53
2022-11-01T23:35:10.544Z,100612.86
2022-11-01T23:37:14.922Z,100613
2022-11-01T23:39:19.259Z,100608.64
2022-11-01T23:41:23.597Z,100605.78
2022-11-01T23:43:27.945Z,100609.52
2022-11-01T23:45:32.293Z,100606.36
2022-11-01T23:47:36.655Z,100604.92
2022-11-01T23:49:41.011Z,100600.43